sensor_id;sensor_type;location;lat;lon;timestamp;pressure;altitude;pressure_sealevel;temperature;humidity
17209;BME280;8720;48.488;9.202;2023-05-27T00:02:09;97660.69;;;19.29;45.67
17209;BME280;8720;48.488;9.202;2023-05-27T00:04:36;97660.84;;;19.26;45.73
17209;BME280;8720;48.488;9.202;2023-05-27T00:07:03;97657.44;;;19.23;45.75
17209;BME280;8720;48.488;9.202;2023-05-27T00:09:31;97668.31;;;19.18;46.20
17209;BME280;8720;48.488;9.202;2023-05-27T00:11:58;97658.78;;;19.14;46.01
17209;BME280;8720;48.488;9.202;2023-05-27T00:14:26;97661.63;;;19.10;46.23
17209;BME280;8720;48.488;9.202;2023-05-27T00:16:55;97657.47;;;19.04;46.11
17209;BME280;8720;48.488;9.202;2023-05-27T00:19:22;97668.16;;;19.02;46.24
17209;BME280;8720;48.488;9.202;2023-05-27T00:21:54;97660.34;;;18.99;46.34
17209;BME280;8720;48.488;9.202;2023-05-27T00:24:21;97661.38;;;18.97;46.26
17209;BME280;8720;48.488;9.202;2023-05-27T00:26:49;97660.66;;;18.93;46.70
17209;BME280;8720;48.488;9.202;2023-05-27T00:29:17;97666.09;;;18.90;46.22
17209;BME280;8720;48.488;9.202;2023-05-27T00:31:44;97665.38;;;18.87;46.43
17209;BME280;8720;48.488;9.202;2023-05-27T00:34:13;97644.72;;;18.75;46.38
17209;BME280;8720;48.488;9.202;2023-05-27T00:36:40;97670.94;;;18.81;46.13
17209;BME280;8720;48.488;9.202;2023-05-27T00:39:07;97658.69;;;18.78;46.19
17209;BME280;8720;48.488;9.202;2023-05-27T00:41:35;97666.88;;;18.74;46.22
17209;BME280;8720;48.488;9.202;2023-05-27T00:44:02;97669.81;;;18.68;46.38
17209;BME280;8720;48.488;9.202;2023-05-27T00:46:30;97670.59;;;18.70;46.12
17209;BME280;8720;48.488;9.202;2023-05-27T00:48:57;97659.19;;;18.68;46.42
17209;BME280;8720;48.488;9.202;2023-05-27T00:51:26;97662.84;;;18.65;46.31
17209;BME280;8720;48.488;9.202;2023-05-27T00:53:53;97663.78;;;18.64;46.29
17209;BME280;8720;48.488;9.202;2023-05-27T00:56:22;97660.34;;;18.62;46.18
17209;BME280;8720;48.488;9.202;2023-05-27T00:58:51;97655.97;;;18.61;46.25
17209;BME280;8720;48.488;9.202;2023-05-27T01:01:19;97656.09;;;18.58;46.10
17209;BME280;8720;48.488;9.202;2023-05-27T01:03:46;97655.31;;;18.56;46.18
17209;BME280;8720;48.488;9.202;2023-05-27T01:06:28;97655.41;;;18.55;46.07
17209;BME280;8720;48.488;9.202;2023-05-27T01:09:08;97657.28;;;18.51;45.84
17209;BME280;8720;48.488;9.202;2023-05-27T01:11:43;97654.72;;;18.50;45.86
17209;BME280;8720;48.488;9.202;2023-05-27T01:14:14;97656.59;;;18.48;45.92
17209;BME280;8720;48.488;9.202;2023-05-27T01:16:46;97639.34;;;18.38;45.79
17209;BME280;8720;48.488;9.202;2023-05-27T01:19:22;97634.34;;;18.32;45.87
17209;BME280;8720;48.488;9.202;2023-05-27T01:22:00;97642.06;;;18.36;45.64
17209;BME280;8720;48.488;9.202;2023-05-27T01:24:29;97642.22;;;18.33;45.78
17209;BME280;8720;48.488;9.202;2023-05-27T01:26:56;97643.13;;;18.32;45.72
17209;BME280;8720;48.488;9.202;2023-05-27T01:29:27;97639.69;;;18.30;45.95
17209;BME280;8720;48.488;9.202;2023-05-27T01:32:01;97637.97;;;18.29;45.85
17209;BME280;8720;48.488;9.202;2023-05-27T01:34:40;97637.25;;;18.26;45.77
17209;BME280;8720;48.488;9.202;2023-05-27T01:37:13;97631.25;;;18.22;45.80
17209;BME280;8720;48.488;9.202;2023-05-27T01:39:46;97622.88;;;18.11;45.68
17209;BME280;8720;48.488;9.202;2023-05-27T01:42:18;97617.56;;;18.12;45.74
17209;BME280;8720;48.488;9.202;2023-05-27T01:44:46;97627.13;;;18.15;45.72
17209;BME280;8720;48.488;9.202;2023-05-27T01:47:14;97626.41;;;18.11;45.57
17209;BME280;8720;48.488;9.202;2023-05-27T01:49:41;97626.47;;;18.10;45.60
17209;BME280;8720;48.488;9.202;2023-05-27T01:52:08;97622.09;;;18.09;45.78
17209;BME280;8720;48.488;9.202;2023-05-27T01:54:35;97619.53;;;18.07;45.95
17209;BME280;8720;48.488;9.202;2023-05-27T01:57:05;97617.81;;;18.06;46.14
17209;BME280;8720;48.488;9.202;2023-05-27T01:59:33;97621.53;;;18.02;46.31
17209;BME280;8720;48.488;9.202;2023-05-27T02:02:01;97621.59;;;18.01;46.09
17209;BME280;8720;48.488;9.202;2023-05-27T02:04:28;97615.53;;;17.97;46.25
17209;BME280;8720;48.488;9.202;2023-05-27T02:06:55;97611.31;;;17.93;46.25
17209;BME280;8720;48.488;9.202;2023-05-27T02:09:24;97618.59;;;17.88;46.11
17209;BME280;8720;48.488;9.202;2023-05-27T02:11:53;97609.06;;;17.84;46.43
17209;BME280;8720;48.488;9.202;2023-05-27T02:14:22;97621.50;;;17.82;46.57
17209;BME280;8720;48.488;9.202;2023-05-27T02:16:50;97618.22;;;17.77;46.60
17209;BME280;8720;48.488;9.202;2023-05-27T02:19:17;97622.00;;;17.72;46.80
17209;BME280;8720;48.488;9.202;2023-05-27T02:21:46;97618.53;;;17.70;46.61
17209;BME280;8720;48.488;9.202;2023-05-27T02:24:14;97621.38;;;17.65;46.80
17209;BME280;8720;48.488;9.202;2023-05-27T02:26:41;97612.78;;;17.60;47.08
17209;BME280;8720;48.488;9.202;2023-05-27T02:29:08;97619.97;;;17.57;47.51
17209;BME280;8720;48.488;9.202;2023-05-27T02:31:37;97620.19;;;17.52;47.35
17209;BME280;8720;48.488;9.202;2023-05-27T02:34:05;97617.63;;;17.49;47.39
17209;BME280;8720;48.488;9.202;2023-05-27T02:36:33;97616.94;;;17.44;47.35
17209;BME280;8720;48.488;9.202;2023-05-27T02:39:01;97613.66;;;17.39;47.30
17209;BME280;8720;48.488;9.202;2023-05-27T02:41:29;97610.31;;;17.34;47.20
17209;BME280;8720;48.488;9.202;2023-05-27T02:43:56;97611.34;;;17.30;47.33
17209;BME280;8720;48.488;9.202;2023-05-27T02:46:23;97620.34;;;17.26;47.49
17209;BME280;8720;48.488;9.202;2023-05-27T02:48:52;97622.25;;;17.22;47.56
17209;BME280;8720;48.488;9.202;2023-05-27T02:51:20;97615.31;;;17.20;47.67
17209;BME280;8720;48.488;9.202;2023-05-27T02:53:49;97619.81;;;17.18;47.77
17209;BME280;8720;48.488;9.202;2023-05-27T02:56:17;97618.16;;;17.15;47.76
17209;BME280;8720;48.488;9.202;2023-05-27T02:58:44;97616.53;;;17.11;47.49
17209;BME280;8720;48.488;9.202;2023-05-27T03:01:11;97608.72;;;17.08;47.57
17209;BME280;8720;48.488;9.202;2023-05-27T03:03:39;97610.69;;;17.03;47.52
17209;BME280;8720;48.488;9.202;2023-05-27T03:06:07;97610.88;;;16.99;47.68
17209;BME280;8720;48.488;9.202;2023-05-27T03:08:36;97610.94;;;16.97;47.76
17209;BME280;8720;48.488;9.202;2023-05-27T03:11:03;97609.31;;;16.95;47.56
17209;BME280;8720;48.488;9.202;2023-05-27T03:13:30;97612.91;;;16.92;47.69
17209;BME280;8720;48.488;9.202;2023-05-27T03:15:57;97605.16;;;16.88;47.72
17209;BME280;8720;48.488;9.202;2023-05-27T03:18:26;97614.81;;;16.89;47.98
17209;BME280;8720;48.488;9.202;2023-05-27T03:20:53;97607.00;;;16.86;47.92
17209;BME280;8720;48.488;9.202;2023-05-27T03:23:23;97612.41;;;16.83;48.18
17209;BME280;8720;48.488;9.202;2023-05-27T03:25:50;97623.09;;;16.80;47.95
17209;BME280;8720;48.488;9.202;2023-05-27T03:28:17;97622.28;;;16.78;48.10
17209;BME280;8720;48.488;9.202;2023-05-27T03:30:45;97612.66;;;16.77;48.15
17209;BME280;8720;48.488;9.202;2023-05-27T03:33:24;97611.84;;;16.75;48.08
17209;BME280;8720;48.488;9.202;2023-05-27T03:35:52;97619.78;;;16.75;48.07
17209;BME280;8720;48.488;9.202;2023-05-27T03:38:22;97611.06;;;16.73;48.32
17209;BME280;8720;48.488;9.202;2023-05-27T03:40:50;97607.53;;;16.72;48.37
17209;BME280;8720;48.488;9.202;2023-05-27T03:43:17;97611.19;;;16.70;48.43
17209;BME280;8720;48.488;9.202;2023-05-27T03:45:44;97605.09;;;16.68;48.57
17209;BME280;8720;48.488;9.202;2023-05-27T03:48:12;97613.13;;;16.65;48.64
17209;BME280;8720;48.488;9.202;2023-05-27T03:50:39;97614.97;;;16.63;48.85
17209;BME280;8720;48.488;9.202;2023-05-27T03:53:07;97613.31;;;16.60;48.85
17209;BME280;8720;48.488;9.202;2023-05-27T03:55:36;97607.22;;;16.58;49.12
17209;BME280;8720;48.488;9.202;2023-05-27T03:58:03;97613.41;;;16.57;49.00
17209;BME280;8720;48.488;9.202;2023-05-27T04:00:32;97605.44;;;16.59;49.12
17209;BME280;8720;48.488;9.202;2023-05-27T04:03:02;97616.88;;;16.59;49.11
17209;BME280;8720;48.488;9.202;2023-05-27T04:05:29;97608.06;;;16.59;49.07
17209;BME280;8720;48.488;9.202;2023-05-27T04:07:58;97617.66;;;16.61;49.20
17209;BME280;8720;48.488;9.202;2023-05-27T04:10:25;97616.72;;;16.62;49.13
17209;BME280;8720;48.488;9.202;2023-05-27T04:12:57;97611.41;;;16.64;49.15
17209;BME280;8720;48.488;9.202;2023-05-27T04:15:24;97614.88;;;16.66;49.24
17209;BME280;8720;48.488;9.202;2023-05-27T04:17:52;97616.56;;;16.67;49.22
17209;BME280;8720;48.488;9.202;2023-05-27T04:20:19;97615.59;;;16.69;49.25
17209;BME280;8720;48.488;9.202;2023-05-27T04:22:51;97625.19;;;16.72;49.08
17209;BME280;8720;48.488;9.202;2023-05-27T04:25:19;97621.56;;;16.74;49.15
17209;BME280;8720;48.488;9.202;2023-05-27T04:28:01;97625.81;;;16.78;49.11
17209;BME280;8720;48.488;9.202;2023-05-27T04:30:31;97626.44;;;16.85;49.17
17209;BME280;8720;48.488;9.202;2023-05-27T04:32:59;97625.34;;;16.90;49.19
17209;BME280;8720;48.488;9.202;2023-05-27T04:35:27;97622.94;;;17.06;49.18
17209;BME280;8720;48.488;9.202;2023-05-27T04:37:57;97630.44;;;17.38;49.17
17209;BME280;8720;48.488;9.202;2023-05-27T04:40:31;97627.69;;;17.83;49.12
17209;BME280;8720;48.488;9.202;2023-05-27T04:43:18;97623.28;;;18.61;48.49
17209;BME280;8720;48.488;9.202;2023-05-27T04:45:46;97624.88;;;19.02;48.11
17209;BME280;8720;48.488;9.202;2023-05-27T04:48:14;97622.91;;;19.43;47.72
17209;BME280;8720;48.488;9.202;2023-05-27T04:50:41;97620.59;;;19.88;47.33
17209;BME280;8720;48.488;9.202;2023-05-27T04:53:08;97623.22;;;20.39;46.71
17209;BME280;8720;48.488;9.202;2023-05-27T04:55:36;97617.97;;;20.86;46.54
17209;BME280;8720;48.488;9.202;2023-05-27T04:58:04;97621.41;;;21.35;45.62
17209;BME280;8720;48.488;9.202;2023-05-27T05:00:33;97615.22;;;21.80;45.13
17209;BME280;8720;48.488;9.202;2023-05-27T05:03:06;97614.97;;;22.28;44.42
17209;BME280;8720;48.488;9.202;2023-05-27T05:05:34;97621.78;;;22.76;43.42
17209;BME280;8720;48.488;9.202;2023-05-27T05:08:02;97610.75;;;23.22;42.59
17209;BME280;8720;48.488;9.202;2023-05-27T05:10:31;97607.78;;;23.68;41.60
17209;BME280;8720;48.488;9.202;2023-05-27T05:12:59;97614.09;;;24.06;40.83
17209;BME280;8720;48.488;9.202;2023-05-27T05:15:26;97615.06;;;24.43;40.60
17209;BME280;8720;48.488;9.202;2023-05-27T05:17:57;97613.50;;;24.78;40.12
17209;BME280;8720;48.488;9.202;2023-05-27T05:20:24;97618.56;;;25.06;39.25
17209;BME280;8720;48.488;9.202;2023-05-27T05:22:51;97610.97;;;25.36;38.46
17209;BME280;8720;48.488;9.202;2023-05-27T05:25:19;97606.81;;;25.68;38.27
17209;BME280;8720;48.488;9.202;2023-05-27T05:27:49;97607.47;;;26.06;37.45
17209;BME280;8720;48.488;9.202;2023-05-27T05:30:16;97612.28;;;26.36;37.20
17209;BME280;8720;48.488;9.202;2023-05-27T05:32:43;97612.44;;;26.68;36.38
17209;BME280;8720;48.488;9.202;2023-05-27T05:35:12;97610.03;;;26.98;35.67
17209;BME280;8720;48.488;9.202;2023-05-27T05:37:45;97608.69;;;27.15;35.41
17209;BME280;8720;48.488;9.202;2023-05-27T05:40:12;97609.41;;;27.28;35.20
17209;BME280;8720;48.488;9.202;2023-05-27T05:42:50;97611.59;;;27.45;34.48
17209;BME280;8720;48.488;9.202;2023-05-27T05:45:18;97610.00;;;27.53;34.25
17209;BME280;8720;48.488;9.202;2023-05-27T05:47:47;97611.34;;;27.48;33.73
17209;BME280;8720;48.488;9.202;2023-05-27T05:50:19;97613.31;;;27.46;33.42
17209;BME280;8720;48.488;9.202;2023-05-27T05:52:47;97614.03;;;27.48;33.46
17209;BME280;8720;48.488;9.202;2023-05-27T05:55:14;97610.72;;;27.55;33.13
17209;BME280;8720;48.488;9.202;2023-05-27T05:57:42;97613.97;;;27.70;33.34
17209;BME280;8720;48.488;9.202;2023-05-27T06:00:11;97606.09;;;27.78;32.93
17209;BME280;8720;48.488;9.202;2023-05-27T06:02:45;97610.59;;;28.00;33.12
17209;BME280;8720;48.488;9.202;2023-05-27T06:05:32;97609.59;;;28.21;32.61
17209;BME280;8720;48.488;9.202;2023-05-27T06:07:59;97616.97;;;28.40;32.34
17209;BME280;8720;48.488;9.202;2023-05-27T06:10:27;97608.75;;;28.62;31.85
17209;BME280;8720;48.488;9.202;2023-05-27T06:12:54;97606.63;;;28.86;31.73
17209;BME280;8720;48.488;9.202;2023-05-27T06:15:22;97608.59;;;29.14;31.62
17209;BME280;8720;48.488;9.202;2023-05-27T06:17:49;97605.25;;;29.41;30.91
17209;BME280;8720;48.488;9.202;2023-05-27T06:20:17;97602.31;;;29.53;30.51
17209;BME280;8720;48.488;9.202;2023-05-27T06:22:46;97602.19;;;29.65;30.68
17209;BME280;8720;48.488;9.202;2023-05-27T06:25:31;97599.69;;;29.82;30.41
17209;BME280;8720;48.488;9.202;2023-05-27T06:28:03;97598.81;;;30.01;29.71
17209;BME280;8720;48.488;9.202;2023-05-27T06:30:32;97603.78;;;30.15;29.57
17209;BME280;8720;48.488;9.202;2023-05-27T06:33:01;97605.94;;;30.21;29.52
17209;BME280;8720;48.488;9.202;2023-05-27T06:35:31;97601.78;;;30.26;29.51
17209;BME280;8720;48.488;9.202;2023-05-27T06:38:00;97601.25;;;30.32;29.00
17209;BME280;8720;48.488;9.202;2023-05-27T06:40:27;97605.78;;;30.41;29.11
17209;BME280;8720;48.488;9.202;2023-05-27T06:42:55;97606.78;;;30.50;28.90
17209;BME280;8720;48.488;9.202;2023-05-27T06:45:37;97606.44;;;30.63;28.40
17209;BME280;8720;48.488;9.202;2023-05-27T06:48:25;97604.72;;;30.71;28.83
17209;BME280;8720;48.488;9.202;2023-05-27T06:50:52;97597.00;;;30.86;28.04
17209;BME280;8720;48.488;9.202;2023-05-27T06:53:21;97590.28;;;30.99;27.76
17209;BME280;8720;48.488;9.202;2023-05-27T06:56:00;97597.94;;;31.04;28.25
17209;BME280;8720;48.488;9.202;2023-05-27T06:58:48;97592.66;;;31.12;28.10
17209;BME280;8720;48.488;9.202;2023-05-27T07:01:17;97601.25;;;31.25;27.74
17209;BME280;8720;48.488;9.202;2023-05-27T07:03:49;97590.53;;;31.33;27.81
17209;BME280;8720;48.488;9.202;2023-05-27T07:06:24;97590.81;;;31.40;27.48
17209;BME280;8720;48.488;9.202;2023-05-27T07:08:56;97588.66;;;31.43;27.14
17209;BME280;8720;48.488;9.202;2023-05-27T07:11:29;97592.06;;;31.45;27.18
17209;BME280;8720;48.488;9.202;2023-05-27T07:14:01;97594.31;;;31.50;27.25
17209;BME280;8720;48.488;9.202;2023-05-27T07:16:31;97601.66;;;31.57;27.33
17209;BME280;8720;48.488;9.202;2023-05-27T07:18:59;97593.94;;;31.62;27.00
17209;BME280;8720;48.488;9.202;2023-05-27T07:21:31;97598.66;;;31.60;27.45
17209;BME280;8720;48.488;9.202;2023-05-27T07:24:01;97595.97;;;31.60;27.11
17209;BME280;8720;48.488;9.202;2023-05-27T07:26:33;97594.84;;;31.53;26.78
17209;BME280;8720;48.488;9.202;2023-05-27T07:29:01;97602.63;;;31.39;26.81
17209;BME280;8720;48.488;9.202;2023-05-27T07:31:55;97601.41;;;31.23;26.84
17209;BME280;8720;48.488;9.202;2023-05-27T07:34:29;97598.88;;;31.22;26.78
17209;BME280;8720;48.488;9.202;2023-05-27T07:36:58;97590.59;;;31.23;26.74
17209;BME280;8720;48.488;9.202;2023-05-27T07:39:26;97591.19;;;31.17;26.78
17209;BME280;8720;48.488;9.202;2023-05-27T07:41:54;97586.94;;;31.15;26.90
17209;BME280;8720;48.488;9.202;2023-05-27T07:44:22;97582.31;;;31.25;26.77
17209;BME280;8720;48.488;9.202;2023-05-27T07:46:50;97589.97;;;31.39;26.99
17209;BME280;8720;48.488;9.202;2023-05-27T07:49:18;97587.03;;;31.50;26.66
17209;BME280;8720;48.488;9.202;2023-05-27T07:52:01;97583.97;;;31.45;26.96
17209;BME280;8720;48.488;9.202;2023-05-27T07:54:29;97588.53;;;31.35;26.42
17209;BME280;8720;48.488;9.202;2023-05-27T07:56:57;97572.75;;;31.30;26.55
17209;BME280;8720;48.488;9.202;2023-05-27T07:59:24;97573.28;;;31.34;26.66
17209;BME280;8720;48.488;9.202;2023-05-27T08:01:52;97573.19;;;31.26;26.79
17209;BME280;8720;48.488;9.202;2023-05-27T08:04:19;97568.41;;;31.20;27.18
17209;BME280;8720;48.488;9.202;2023-05-27T08:06:59;97572.66;;;31.22;26.62
17209;BME280;8720;48.488;9.202;2023-05-27T08:09:32;97576.16;;;31.05;26.63
17209;BME280;8720;48.488;9.202;2023-05-27T08:12:20;97574.25;;;30.79;26.95
17209;BME280;8720;48.488;9.202;2023-05-27T08:14:57;97573.28;;;30.70;27.39
17209;BME280;8720;48.488;9.202;2023-05-27T08:17:27;97572.19;;;30.63;27.80
17209;BME280;8720;48.488;9.202;2023-05-27T08:20:11;97570.34;;;30.64;27.47
17209;BME280;8720;48.488;9.202;2023-05-27T08:22:56;97555.69;;;30.57;27.54
17209;BME280;8720;48.488;9.202;2023-05-27T08:25:46;97556.44;;;30.49;27.21
17209;BME280;8720;48.488;9.202;2023-05-27T08:28:42;97554.78;;;30.38;27.84
17209;BME280;8720;48.488;9.202;2023-05-27T08:31:30;97544.53;;;30.32;27.71
17209;BME280;8720;48.488;9.202;2023-05-27T08:34:00;97545.41;;;30.23;27.56
17209;BME280;8720;48.488;9.202;2023-05-27T08:36:30;97547.81;;;30.07;27.44
17209;BME280;8720;48.488;9.202;2023-05-27T08:38:59;97543.31;;;29.98;27.85
17209;BME280;8720;48.488;9.202;2023-05-27T08:41:37;97530.66;;;29.89;28.11
17209;BME280;8720;48.488;9.202;2023-05-27T08:44:06;97540.72;;;29.97;28.42
17209;BME280;8720;48.488;9.202;2023-05-27T08:46:36;97537.59;;;30.01;28.42
17209;BME280;8720;48.488;9.202;2023-05-27T08:49:06;97528.78;;;29.99;28.20
17209;BME280;8720;48.488;9.202;2023-05-27T08:51:36;97531.66;;;29.98;28.15
17209;BME280;8720;48.488;9.202;2023-05-27T08:54:08;97529.66;;;30.00;28.29
17209;BME280;8720;48.488;9.202;2023-05-27T08:56:40;97534.66;;;29.95;28.54
17209;BME280;8720;48.488;9.202;2023-05-27T08:59:11;97526.69;;;29.84;28.41
17209;BME280;8720;48.488;9.202;2023-05-27T09:01:40;97523.53;;;29.69;28.71
17209;BME280;8720;48.488;9.202;2023-05-27T09:04:09;97521.00;;;29.48;29.16
17209;BME280;8720;48.488;9.202;2023-05-27T09:06:37;97515.69;;;29.28;28.97
17209;BME280;8720;48.488;9.202;2023-05-27T09:09:06;97506.13;;;29.05;29.08
17209;BME280;8720;48.488;9.202;2023-05-27T09:11:34;97508.94;;;28.94;29.46
17209;BME280;8720;48.488;9.202;2023-05-27T09:14:07;97515.84;;;28.77;29.21
17209;BME280;8720;48.488;9.202;2023-05-27T09:16:41;97517.94;;;28.73;29.61
17209;BME280;8720;48.488;9.202;2023-05-27T09:19:15;97514.41;;;28.52;29.87
17209;BME280;8720;48.488;9.202;2023-05-27T09:21:43;97504.28;;;28.35;29.66
17209;BME280;8720;48.488;9.202;2023-05-27T09:24:11;97501.09;;;28.21;30.10
17209;BME280;8720;48.488;9.202;2023-05-27T09:26:38;97494.22;;;28.07;30.51
17209;BME280;8720;48.488;9.202;2023-05-27T09:29:08;97497.00;;;27.96;30.13
17209;BME280;8720;48.488;9.202;2023-05-27T09:31:39;97492.63;;;27.84;30.71
17209;BME280;8720;48.488;9.202;2023-05-27T09:34:11;97472.81;;;27.64;30.59
17209;BME280;8720;48.488;9.202;2023-05-27T09:36:43;97482.78;;;27.73;30.93
17209;BME280;8720;48.488;9.202;2023-05-27T09:39:13;97482.06;;;27.71;30.62
17209;BME280;8720;48.488;9.202;2023-05-27T09:41:40;97475.28;;;27.77;30.86
17209;BME280;8720;48.488;9.202;2023-05-27T09:44:09;97465.81;;;27.73;30.58
17209;BME280;8720;48.488;9.202;2023-05-27T09:46:36;97480.03;;;27.84;31.00
17209;BME280;8720;48.488;9.202;2023-05-27T09:49:05;97481.59;;;27.87;30.50
17209;BME280;8720;48.488;9.202;2023-05-27T09:51:35;97474.78;;;27.83;30.30
17209;BME280;8720;48.488;9.202;2023-05-27T09:54:05;97464.28;;;27.80;30.40
17209;BME280;8720;48.488;9.202;2023-05-27T09:56:34;97470.91;;;27.76;30.50
17209;BME280;8720;48.488;9.202;2023-05-27T09:59:02;97468.75;;;27.70;30.39
17209;BME280;8720;48.488;9.202;2023-05-27T10:01:33;97470.50;;;27.60;30.54
17209;BME280;8720;48.488;9.202;2023-05-27T10:04:04;97465.06;;;27.50;30.33
17209;BME280;8720;48.488;9.202;2023-05-27T10:06:32;97470.19;;;27.53;30.62
17209;BME280;8720;48.488;9.202;2023-05-27T10:09:01;97467.50;;;27.53;30.80
17209;BME280;8720;48.488;9.202;2023-05-27T10:11:31;97465.66;;;27.54;30.06
17209;BME280;8720;48.488;9.202;2023-05-27T10:13:59;97464.81;;;27.53;30.29
17209;BME280;8720;48.488;9.202;2023-05-27T10:16:27;97458.44;;;27.54;30.32
17209;BME280;8720;48.488;9.202;2023-05-27T10:18:57;97450.31;;;27.65;30.65
17209;BME280;8720;48.488;9.202;2023-05-27T10:21:29;97456.88;;;27.72;30.43
17209;BME280;8720;48.488;9.202;2023-05-27T10:23:58;97461.31;;;27.83;30.15
17209;BME280;8720;48.488;9.202;2023-05-27T10:26:32;97446.63;;;27.87;29.82
17209;BME280;8720;48.488;9.202;2023-05-27T10:29:08;97453.72;;;27.88;30.03
17209;BME280;8720;48.488;9.202;2023-05-27T10:31:43;97449.47;;;27.85;30.01
17209;BME280;8720;48.488;9.202;2023-05-27T10:34:12;97440.66;;;27.83;29.18
17209;BME280;8720;48.488;9.202;2023-05-27T10:36:40;97442.78;;;27.80;29.82
17209;BME280;8720;48.488;9.202;2023-05-27T10:39:13;97433.84;;;27.79;29.34
17209;BME280;8720;48.488;9.202;2023-05-27T10:41:43;97442.78;;;27.80;29.16
17209;BME280;8720;48.488;9.202;2023-05-27T10:44:11;97423.63;;;27.73;28.94
17209;BME280;8720;48.488;9.202;2023-05-27T10:46:40;97434.78;;;27.69;28.97
17209;BME280;8720;48.488;9.202;2023-05-27T10:49:14;97448.63;;;27.64;28.87
17209;BME280;8720;48.488;9.202;2023-05-27T10:51:43;97433.72;;;27.60;29.17
17209;BME280;8720;48.488;9.202;2023-05-27T10:54:10;97428.50;;;27.59;29.06
17209;BME280;8720;48.488;9.202;2023-05-27T10:56:48;97430.69;;;27.54;29.53
17209;BME280;8720;48.488;9.202;2023-05-27T10:59:21;97430.69;;;27.54;29.46
17209;BME280;8720;48.488;9.202;2023-05-27T11:01:53;97428.00;;;27.54;29.41
17209;BME280;8720;48.488;9.202;2023-05-27T11:04:22;97431.31;;;27.57;29.79
17209;BME280;8720;48.488;9.202;2023-05-27T11:06:59;97425.78;;;27.59;29.47
17209;BME280;8720;48.488;9.202;2023-05-27T11:09:27;97428.94;;;27.64;29.54
17209;BME280;8720;48.488;9.202;2023-05-27T11:11:56;97443.69;;;27.69;28.94
17209;BME280;8720;48.488;9.202;2023-05-27T11:14:23;97431.97;;;27.70;29.22
17209;BME280;8720;48.488;9.202;2023-05-27T11:16:51;97422.88;;;27.71;28.60
17209;BME280;8720;48.488;9.202;2023-05-27T11:19:18;97417.31;;;27.63;28.94
17209;BME280;8720;48.488;9.202;2023-05-27T11:21:48;97429.41;;;27.69;29.09
17209;BME280;8720;48.488;9.202;2023-05-27T11:24:15;97419.91;;;27.65;28.71
17209;BME280;8720;48.488;9.202;2023-05-27T11:26:44;97421.13;;;27.61;29.31
17209;BME280;8720;48.488;9.202;2023-05-27T11:29:14;97413.59;;;27.55;28.95
17209;BME280;8720;48.488;9.202;2023-05-27T11:31:46;97401.13;;;27.54;29.42
17209;BME280;8720;48.488;9.202;2023-05-27T11:34:14;97407.19;;;27.67;29.38
17209;BME280;8720;48.488;9.202;2023-05-27T11:36:44;97406.66;;;27.73;28.92
17209;BME280;8720;48.488;9.202;2023-05-27T11:39:13;97404.78;;;27.73;28.76
17209;BME280;8720;48.488;9.202;2023-05-27T11:41:49;97395.88;;;27.73;29.02
17209;BME280;8720;48.488;9.202;2023-05-27T11:44:18;97402.97;;;27.74;28.68
17209;BME280;8720;48.488;9.202;2023-05-27T11:46:47;97393.31;;;27.71;28.60
17209;BME280;8720;48.488;9.202;2023-05-27T11:49:17;97379.03;;;27.71;28.64
17209;BME280;8720;48.488;9.202;2023-05-27T11:51:46;97379.75;;;27.73;28.63
17209;BME280;8720;48.488;9.202;2023-05-27T11:54:20;97373.97;;;27.77;29.10
17209;BME280;8720;48.488;9.202;2023-05-27T11:56:50;97376.66;;;27.77;28.99
17209;BME280;8720;48.488;9.202;2023-05-27T11:59:18;97375.25;;;27.83;28.67
17209;BME280;8720;48.488;9.202;2023-05-27T12:01:46;97371.47;;;27.85;28.44
17209;BME280;8720;48.488;9.202;2023-05-27T12:04:13;97369.34;;;27.89;29.22
17209;BME280;8720;48.488;9.202;2023-05-27T12:06:42;97358.44;;;27.91;28.25
17209;BME280;8720;48.488;9.202;2023-05-27T12:09:11;97362.72;;;27.93;28.67
17209;BME280;8720;48.488;9.202;2023-05-27T12:11:41;97361.78;;;27.94;28.43
17209;BME280;8720;48.488;9.202;2023-05-27T12:14:09;97349.16;;;27.95;28.34
17209;BME280;8720;48.488;9.202;2023-05-27T12:16:36;97350.13;;;27.94;28.08
17209;BME280;8720;48.488;9.202;2023-05-27T12:19:03;97348.41;;;27.93;28.10
17209;BME280;8720;48.488;9.202;2023-05-27T12:21:31;97360.31;;;27.90;27.99
17209;BME280;8720;48.488;9.202;2023-05-27T12:23:58;97349.78;;;27.87;27.50
17209;BME280;8720;48.488;9.202;2023-05-27T12:26:25;97341.16;;;27.83;27.68
17209;BME280;8720;48.488;9.202;2023-05-27T12:28:54;97338.47;;;27.83;27.72
17209;BME280;8720;48.488;9.202;2023-05-27T12:31:22;97338.06;;;27.88;27.98
17209;BME280;8720;48.488;9.202;2023-05-27T12:33:50;97318.81;;;27.93;27.73
17209;BME280;8720;48.488;9.202;2023-05-27T12:36:17;97324.69;;;27.98;28.41
17209;BME280;8720;48.488;9.202;2023-05-27T12:38:45;97325.84;;;28.05;28.30
17209;BME280;8720;48.488;9.202;2023-05-27T12:41:12;97318.19;;;28.10;28.17
17209;BME280;8720;48.488;9.202;2023-05-27T12:43:39;97334.22;;;28.11;28.47
17209;BME280;8720;48.488;9.202;2023-05-27T12:46:08;97321.59;;;28.12;28.49
17209;BME280;8720;48.488;9.202;2023-05-27T12:48:35;97324.28;;;28.12;28.29
17209;BME280;8720;48.488;9.202;2023-05-27T12:51:03;97319.34;;;28.07;28.14
17209;BME280;8720;48.488;9.202;2023-05-27T12:53:30;97325.25;;;28.01;28.39
17209;BME280;8720;48.488;9.202;2023-05-27T12:55:57;97317.84;;;27.94;28.11
17209;BME280;8720;48.488;9.202;2023-05-27T12:58:25;97311.03;;;27.90;28.55
17209;BME280;8720;48.488;9.202;2023-05-27T13:00:52;97305.91;;;27.86;28.68
17209;BME280;8720;48.488;9.202;2023-05-27T13:03:21;97273.28;;;27.61;28.43
17209;BME280;8720;48.488;9.202;2023-05-27T13:05:48;97303.22;;;27.86;28.41
17209;BME280;8720;48.488;9.202;2023-05-27T13:08:16;97297.97;;;27.85;28.44
17209;BME280;8720;48.488;9.202;2023-05-27T13:10:43;97291.88;;;27.83;28.39
17209;BME280;8720;48.488;9.202;2023-05-27T13:13:10;97299.94;;;27.83;28.44
17209;BME280;8720;48.488;9.202;2023-05-27T13:15:38;97294.31;;;27.86;28.71
17209;BME280;8720;48.488;9.202;2023-05-27T13:18:05;97295.75;;;27.90;28.78
17209;BME280;8720;48.488;9.202;2023-05-27T13:20:34;97297.22;;;27.94;28.78
17209;BME280;8720;48.488;9.202;2023-05-27T13:23:01;97287.84;;;27.98;28.39
17209;BME280;8720;48.488;9.202;2023-05-27T13:25:29;97272.56;;;27.99;28.22